Aeroporto :
LOGIN :

Iscrizione | Disclaimer

   EN    FR    IT 

 










Sommario :    VFR   VFR Marginale   IFR   IFR Intensivo   IFR Molto Intensivo
Visibilità : 
Base nubi : 
>= 8 km
>= 3000ft
5 / 8 km
1000 / 3000 ft
1500m / 5 km
500 / 1000 ft
800 / 1500m
200 / 500 ft
< 800m
< 200 ft
Simboli :   Temporali  Nebbia  Neve Forte  Precipitazioni Forti  Vento > 20 kt
SIGMETs :   Varie  Temporali  Ghiacco  Turbolenza  Onda orograficha  Ceneri Vulcaniche






- Altitudine del aeroporto : 675 ft
- Codice IATA : RZE


EPRZ - Rzeszow-Jasionka

ULTIMO METAR :
  • 011500Z 26015KT CAVOK 07/M08 Q1017

METARs OBSOLETI :
  • 011430Z 25015KT CAVOK 07/M08 Q1018
  • 011400Z 26014KT 230V290 CAVOK 07/M08 Q1018
  • 011330Z 24016KT CAVOK 07/M07 Q1018
  • 011300Z 25015G25KT 220V290 CAVOK 07/M07 Q1019
  • 011230Z 25016KT 220V280 CAVOK 06/M07 Q1019

TAF TAF EPRZ
Valido dal 01 a 12 ore il 02 a 12 ore UTC


011130Z 0112/0212 24014KT CAVOK
PROB40
TEMPO 0112/0116 SCT040TCU
BECMG 0116/0118 VRB02KT
BECMG 0207/0209 23015G25KT



MetMap, La meteo Aeronautica in un colpo d'occhio ! - Copyright ORBIFLY Dicembre 2007 - Disclaimer

ORBIFLY MET'MAP TEAM :

Programmazione e sviluppo : Alexandra Zaïnal
Concezione : Baudouin d'Aumeries
Aiuto per la programmazione : Marc-Olivier Méhu
Supporto tecnico e logistico : Manuel Goepfert
Aiuto per la traduzione : Arnaldo La Scala

Contatto : metmap@orbifly.com




FONTI E CREDITI :

   NOAA